Time;durP1;ratioP1;P1;durP2;ratioP2;P2;SDS_P1;SDS_P2;PMS_P1;PMS_P2;Temp;Humidity;BMP_temperature;BMP_pressure;BME280_temperature;BME280_humidity;BME280_pressure;Samples;Min_cycle;Max_cycle;Signal;HPM_P1;HPM_P2
2023/05/06 00:01:14;;;;;;;;;;;;;;;-144.99;100.00;52317.66;5089658;28;20350;-79
2023/05/06 00:03:40;;;;;;;;;;;;;;;-144.99;100.00;52309.50;5086803;28;20456;-79
2023/05/06 00:06:08;;;;;;;;;;;;;;;-144.99;100.00;52317.66;5090160;28;19959;-80
2023/05/06 00:08:35;;;;;;;;;;;;;;;-144.99;100.00;52319.69;5094579;28;19989;-79
2023/05/06 00:11:01;;;;;;;;;;;;;;;-144.99;100.00;52305.41;5100850;28;20377;-79
2023/05/06 00:13:28;;;;;;;;;;;;;;;-144.99;100.00;52329.88;5098320;28;20276;-79
2023/05/06 00:15:55;;;;;;;;;;;;;;;-144.99;100.00;52260.56;4748843;28;10000079;-79
2023/05/06 00:18:22;;;;;;;;;;;;;;;-144.99;100.00;52297.25;5099550;28;19932;-79
2023/05/06 00:20:49;;;;;;;;;;;;;;;-144.99;100.00;52278.91;5101766;28;20749;-79
2023/05/06 00:23:17;;;;;;;;;;;;;;;-144.99;100.00;52313.56;5100301;28;20343;-79
2023/05/06 00:25:43;;;;;;;;;;;;;;;-144.99;100.00;52301.34;5108495;28;19924;-78
2023/05/06 00:28:10;;;;;;;;;;;;;;;-144.99;100.00;52305.41;5107467;28;19931;-80
2023/05/06 00:30:36;;;;;;;;;;;;;;;-144.99;100.00;52321.72;5101762;28;19923;-73
2023/05/06 00:33:03;;;;;;;;;;;;;;;-144.99;100.00;52313.56;5093506;28;20327;-77
2023/05/06 00:35:30;;;;;;;;;;;;;;;-144.99;100.00;52333.94;5091481;28;20285;-78
2023/05/06 00:37:57;;;;;;;;;;;;;;;-144.99;100.00;52354.34;5091407;28;20017;-73
2023/05/06 00:40:25;;;;;;;;;;;;;;;-144.99;100.00;52309.50;5094208;28;19942;-74
2023/05/06 00:42:51;;;;;;;;;;;;;;;-144.99;100.00;52301.34;5090354;28;19928;-73
2023/05/06 00:45:18;;;;;;;;;;;;;;;-144.99;100.00;52305.41;5093597;28;20384;-73
2023/05/06 00:47:44;;;;;;;;;;;;;;;-144.99;100.00;52305.41;5092306;28;19924;-74
2023/05/06 00:50:11;;;;;;;;;;;;;;;-144.99;100.00;52276.88;5099404;28;19982;-73
2023/05/06 00:52:37;;;;;;;;;;;;;;;-144.99;100.00;52333.94;5093651;27;19927;-72
2023/05/06 00:55:04;;;;;;;;;;;;;;;-144.99;100.00;52303.38;5090271;28;19977;-72
2023/05/06 00:57:32;;;;;;;;;;;;;;;-144.99;100.00;52350.25;5094314;28;19943;-72
2023/05/06 00:59:59;;;;;;;;;;;;;;;-144.99;100.00;52309.50;5093706;28;19927;-71
2023/05/06 01:02:25;;;;;;;;;;;;;;;-144.99;100.00;52313.56;5094867;28;19993;-71
2023/05/06 01:04:54;;;;;;;;;;;;;;;-144.99;100.00;52280.97;5097562;27;20347;-72
2023/05/06 01:07:28;;;;;;;;;;;;;;;-144.99;100.00;52325.81;5095279;28;20026;-73
2023/05/06 01:09:57;;;;;;;;;;;;;;;-144.99;100.00;52333.94;5094629;28;20005;-73
2023/05/06 01:12:29;;;;;;;;;;;;;;;-144.99;100.00;52333.94;5092236;28;20369;-73
2023/05/06 01:14:59;;;;;;;;;;;;;;;-144.99;100.00;52317.66;5091453;28;19928;-73
2023/05/06 01:17:27;;;;;;;;;;;;;;;-144.99;100.00;52295.22;5095242;28;19966;-74
2023/05/06 01:19:57;;;;;;;;;;;;;;;-144.99;100.00;52303.38;5094784;28;20028;-73
2023/05/06 01:22:24;;;;;;;;;;;;;;;-144.99;100.00;52346.19;5097573;28;19986;-76
2023/05/06 01:24:52;;;;;;;;;;;;;;;-144.99;100.00;52317.66;5095174;28;19932;-68
2023/05/06 01:27:19;;;;;;;;;;;;;;;-144.99;100.00;52329.88;5096750;28;19963;-69
2023/05/06 01:29:46;;;;;;;;;;;;;;;-144.99;100.00;52313.56;5093125;28;19975;-70
2023/05/06 01:32:30;;;;;;;;;;;;;;;-144.99;100.00;52321.72;5096534;27;20445;-70
2023/05/06 01:35:03;;;;;;;;;;;;;;;-144.99;100.00;52311.53;5093870;28;20039;-68
2023/05/06 01:37:34;;;;;;;;;;;;;;;-144.99;100.00;52293.19;5094710;28;20016;-69
2023/05/06 01:40:03;;;;;;;;;;;;;;;-144.99;100.00;52321.72;5098329;28;19976;-69
2023/05/06 01:42:31;;;;;;;;;;;;;;;-144.99;100.00;52374.72;5091785;28;20028;-69
2023/05/06 01:45:00;;;;;;;;;;;;;;;-144.99;100.00;52317.66;5093396;28;19997;-69
2023/05/06 01:47:26;;;;;;;;;;;;;;;-144.99;100.00;52280.97;5090364;28;20318;-66
2023/05/06 01:49:53;;;;;;;;;;;;;;;-144.99;100.00;52317.66;5093990;28;20247;-67
2023/05/06 01:52:21;;;;;;;;;;;;;;;-144.99;100.00;52293.19;5097924;28;20082;-67
2023/05/06 01:54:47;;;;;;;;;;;;;;;-144.99;100.00;52301.34;5095271;28;20031;-66
2023/05/06 01:57:15;;;;;;;;;;;;;;;-144.99;100.00;52285.03;5090619;28;19989;-66
2023/05/06 01:59:43;;;;;;;;;;;;;;;-144.99;100.00;52358.41;5093199;28;19976;-66
2023/05/06 02:02:10;;;;;;;;;;;;;;;-144.99;100.00;52301.34;5096758;28;19985;-66
2023/05/06 02:04:36;;;;;;;;;;;;;;;-144.99;100.00;52299.31;5097623;28;20027;-65
2023/05/06 02:07:03;;;;;;;;;;;;;;;-144.99;100.00;52317.66;5095812;28;20002;-65
2023/05/06 02:09:29;;;;;;;;;;;;;;;-144.99;100.00;52342.09;5089622;28;20379;-65
2023/05/06 02:11:56;;;;;;;;;;;;;;;-144.99;100.00;52305.41;5093721;28;20072;-64
2023/05/06 02:14:24;;;;;;;;;;;;;;;-144.99;100.00;52305.41;5097613;28;20309;-68
2023/05/06 02:16:50;;;;;;;;;;;;;;;-144.99;100.00;52315.59;5095202;28;20410;-73
2023/05/06 02:19:17;;;;;;;;;;;;;;;-144.99;100.00;52325.81;5090924;28;19928;-73
2023/05/06 02:21:44;;;;;;;;;;;;;;;-144.99;100.00;52329.88;5096671;28;19931;-74
2023/05/06 02:24:11;;;;;;;;;;;;;;;-144.99;100.00;52293.19;5093718;28;20323;-72
2023/05/06 02:26:37;;;;;;;;;;;;;;;-144.99;100.00;52317.66;5101207;28;19924;-72
2023/05/06 02:29:04;;;;;;;;;;;;;;;-144.99;100.00;52325.81;5095022;28;19951;-72
2023/05/06 02:31:32;;;;;;;;;;;;;;;-144.99;100.00;52346.19;5097748;28;19924;-73
2023/05/06 02:33:59;;;;;;;;;;;;;;;-144.99;100.00;52307.47;5094118;28;19931;-72
2023/05/06 02:36:26;;;;;;;;;;;;;;;-144.99;100.00;52309.50;5104454;28;19927;-73
2023/05/06 02:38:53;;;;;;;;;;;;;;;-144.99;100.00;52289.13;5092627;28;20419;-73
2023/05/06 02:41:19;;;;;;;;;;;;;;;-144.99;100.00;52256.50;5100136;28;20286;-72
2023/05/06 02:43:46;;;;;;;;;;;;;;;-144.99;100.00;52309.50;5091117;28;19936;-72
2023/05/06 02:46:12;;;;;;;;;;;;;;;-144.99;100.00;52325.81;5095041;28;20388;-74
2023/05/06 02:48:40;;;;;;;;;;;;;;;-144.99;100.00;52329.88;5102133;28;19928;-74
2023/05/06 02:51:07;;;;;;;;;;;;;;;-144.99;100.00;52309.50;5099774;28;19961;-74
2023/05/06 02:53:33;;;;;;;;;;;;;;;-144.99;100.00;52295.22;5091376;28;19970;-73
2023/05/06 02:56:00;;;;;;;;;;;;;;;-144.99;100.00;52342.09;5096275;28;19924;-73
2023/05/06 02:58:27;;;;;;;;;;;;;;;-144.99;100.00;52338.03;5091743;28;19973;-73
2023/05/06 03:00:53;;;;;;;;;;;;;;;-144.99;100.00;52323.75;5089415;28;19928;-71
2023/05/06 03:03:20;;;;;;;;;;;;;;;-144.99;100.00;52338.03;5104528;28;19931;-72
2023/05/06 03:05:48;;;;;;;;;;;;;;;-144.99;100.00;52313.56;5108470;28;20304;-72
2023/05/06 03:08:15;;;;;;;;;;;;;;;-144.99;100.00;52305.41;5097245;28;19955;-71
2023/05/06 03:10:42;;;;;;;;;;;;;;;-144.99;100.00;52317.66;5090917;28;20073;-71
2023/05/06 03:13:08;;;;;;;;;;;;;;;-144.99;100.00;52317.66;5094123;28;19960;-73
2023/05/06 03:15:35;;;;;;;;;;;;;;;-144.99;100.00;52333.94;5090556;28;20413;-73
2023/05/06 03:18:01;;;;;;;;;;;;;;;-144.99;100.00;52315.59;5090510;28;20051;-74
2023/05/06 03:20:28;;;;;;;;;;;;;;;-144.99;100.00;52342.09;5094171;28;19928;-73
2023/05/06 03:22:56;;;;;;;;;;;;;;;-144.99;100.00;52323.75;5088342;28;20348;-70
2023/05/06 03:25:22;;;;;;;;;;;;;;;-144.99;100.00;52333.94;5095555;28;20484;-70
2023/05/06 03:27:49;;;;;;;;;;;;;;;-144.99;100.00;52329.88;5092849;28;19924;-70
2023/05/06 03:30:15;;;;;;;;;;;;;;;-144.99;100.00;52329.88;5092059;28;20008;-70
2023/05/06 03:32:42;;;;;;;;;;;;;;;-144.99;100.00;52301.34;5085793;28;19924;-70
2023/05/06 03:35:10;;;;;;;;;;;;;;;-144.99;100.00;52317.66;5092063;28;20027;-69
2023/05/06 03:37:36;;;;;;;;;;;;;;;-144.99;100.00;52317.66;5089591;28;20412;-73
2023/05/06 03:40:05;;;;;;;;;;;;;;;-144.99;100.00;52319.69;5093684;28;20418;-73
2023/05/06 03:42:31;;;;;;;;;;;;;;;-144.99;100.00;52285.03;5091020;28;20256;-73
2023/05/06 03:44:58;;;;;;;;;;;;;;;-144.99;100.00;52325.81;5098190;28;19993;-72
2023/05/06 03:47:24;;;;;;;;;;;;;;;-144.99;100.00;52321.72;5096710;28;19927;-72
2023/05/06 03:49:51;;;;;;;;;;;;;;;-144.99;100.00;52346.19;5098896;27;20473;-70
2023/05/06 03:52:18;;;;;;;;;;;;;;;-144.99;100.00;52325.81;5094109;28;19932;-70
2023/05/06 03:54:44;;;;;;;;;;;;;;;-144.99;100.00;52329.88;5099556;28;20393;-75
2023/05/06 03:57:12;;;;;;;;;;;;;;;-144.99;100.00;52305.41;5099086;28;20202;-69
2023/05/06 03:59:38;;;;;;;;;;;;;;;-144.99;100.00;52329.88;5098014;28;19971;-70
2023/05/06 04:02:05;;;;;;;;;;;;;;;-144.99;100.00;52342.09;5095730;28;19965;-71
2023/05/06 04:04:31;;;;;;;;;;;;;;;-144.99;100.00;52327.84;5096613;28;19977;-71
2023/05/06 04:06:58;;;;;;;;;;;;;;;-144.99;100.00;52366.56;5093997;28;20401;-71
2023/05/06 04:09:25;;;;;;;;;;;;;;;-144.99;100.00;52354.34;5099420;28;20000;-71
2023/05/06 04:11:51;;;;;;;;;;;;;;;-144.99;100.00;52354.34;5095281;28;20439;-72
2023/05/06 04:14:19;;;;;;;;;;;;;;;-144.99;100.00;52340.06;5100794;28;19932;-72
2023/05/06 04:16:45;;;;;;;;;;;;;;;-144.99;100.00;52307.47;5098463;28;20372;-72
2023/05/06 04:19:12;;;;;;;;;;;;;;;-144.99;100.00;52356.38;5101470;28;19927;-72
2023/05/06 04:21:38;;;;;;;;;;;;;;;-144.99;100.00;52323.75;5103191;28;19924;-72
2023/05/06 04:24:05;;;;;;;;;;;;;;;-144.99;100.00;52315.59;5097853;28;20001;-71
2023/05/06 04:26:32;;;;;;;;;;;;;;;-144.99;100.00;52325.81;5093334;28;20438;-70
2023/05/06 04:28:58;;;;;;;;;;;;;;;-144.99;100.00;52317.66;5099021;28;19984;-70
2023/05/06 04:31:28;;;;;;;;;;;;;;;-144.99;100.00;52329.88;5107636;28;19932;-70
2023/05/06 04:33:55;;;;;;;;;;;;;;;-144.99;100.00;52325.81;5100865;28;19934;-69
2023/05/06 04:36:22;;;;;;;;;;;;;;;-144.99;100.00;52338.03;5094548;28;20018;-72
2023/05/06 04:38:49;;;;;;;;;;;;;;;-144.99;100.00;52366.56;5099864;28;19928;-71
2023/05/06 04:41:15;;;;;;;;;;;;;;;-144.99;100.00;52350.25;5097707;28;19989;-72
2023/05/06 04:43:42;;;;;;;;;;;;;;;-144.99;100.00;52333.94;5097086;28;19973;-72
2023/05/06 04:46:09;;;;;;;;;;;;;;;-144.99;100.00;52321.72;5098135;28;20388;-71
2023/05/06 04:48:37;;;;;;;;;;;;;;;-144.99;100.00;52321.72;5103212;28;20357;-72
2023/05/06 04:51:04;;;;;;;;;;;;;;;-144.99;100.00;52289.13;5100617;28;20346;-71
2023/05/06 04:53:31;;;;;;;;;;;;;;;-144.99;100.00;52293.19;5104969;28;20048;-71
2023/05/06 04:55:57;;;;;;;;;;;;;;;-144.99;100.00;52313.56;5107199;27;20441;-70
2023/05/06 04:58:24;;;;;;;;;;;;;;;-144.99;100.00;52360.44;5105417;27;19932;-70
2023/05/06 05:00:50;;;;;;;;;;;;;;;-144.99;100.00;52329.88;5094317;28;19931;-73
2023/05/06 05:03:17;;;;;;;;;;;;;;;-144.99;100.00;52317.66;5091428;28;19935;-72
2023/05/06 05:05:45;;;;;;;;;;;;;;;-144.99;100.00;52305.41;5093115;28;19956;-71
2023/05/06 05:08:12;;;;;;;;;;;;;;;-144.99;100.00;52305.41;5095151;28;19924;-70
2023/05/06 05:10:40;;;;;;;;;;;;;;;-144.99;100.00;52295.22;5097154;28;19932;-74
2023/05/06 05:13:07;;;;;;;;;;;;;;;-144.99;100.00;52348.22;5097871;28;20461;-73
2023/05/06 05:15:33;;;;;;;;;;;;;;;-144.99;100.00;52313.56;5094093;28;20318;-73
2023/05/06 05:18:00;;;;;;;;;;;;;;;-144.99;100.00;52333.94;5096772;28;20040;-73
2023/05/06 05:20:27;;;;;;;;;;;;;;;-144.99;100.00;52321.72;5098111;28;19939;-72
2023/05/06 05:22:55;;;;;;;;;;;;;;;-144.99;100.00;52358.41;5091170;28;20005;-72
2023/05/06 05:25:21;;;;;;;;;;;;;;;-144.99;100.00;52331.91;5093804;28;20010;-72
2023/05/06 05:27:48;;;;;;;;;;;;;;;-144.99;100.00;52309.50;5093726;28;20016;-72
2023/05/06 05:30:14;;;;;;;;;;;;;;;-144.99;100.00;52313.56;5099180;28;20008;-72
2023/05/06 05:32:41;;;;;;;;;;;;;;;-144.99;100.00;52340.06;5090914;28;19935;-72
2023/05/06 05:35:09;;;;;;;;;;;;;;;-144.99;100.00;52297.25;5098474;28;19924;-72
2023/05/06 05:37:35;;;;;;;;;;;;;;;-144.99;100.00;52303.38;5096691;28;19939;-71
2023/05/06 05:40:04;;;;;;;;;;;;;;;-144.99;100.00;52293.19;5092660;28;20001;-70
2023/05/06 05:42:32;;;;;;;;;;;;;;;-144.99;100.00;52348.22;5091765;28;19960;-71
2023/05/06 05:44:59;;;;;;;;;;;;;;;-144.99;100.00;52325.81;5091952;28;20014;-74
2023/05/06 05:47:25;;;;;;;;;;;;;;;-144.99;100.00;52354.34;5093836;28;19951;-72
2023/05/06 05:49:52;;;;;;;;;;;;;;;-144.99;100.00;52289.13;5094549;28;19963;-72
2023/05/06 05:52:19;;;;;;;;;;;;;;;-144.99;100.00;52342.09;5097230;28;19928;-73
2023/05/06 05:54:46;;;;;;;;;;;;;;;-144.99;100.00;52309.50;5093550;28;19994;-72
2023/05/06 05:57:14;;;;;;;;;;;;;;;-144.99;100.00;52305.41;5092173;28;20391;-73
2023/05/06 05:59:40;;;;;;;;;;;;;;;-144.99;100.00;52305.41;5092120;28;19971;-73
2023/05/06 06:02:07;;;;;;;;;;;;;;;-144.99;100.00;52297.25;5091754;28;20003;-75
2023/05/06 06:04:33;;;;;;;;;;;;;;;-144.99;100.00;52285.03;5093443;28;19927;-76
2023/05/06 06:07:00;;;;;;;;;;;;;;;-144.99;100.00;52317.66;5096686;28;20270;-71
2023/05/06 06:09:27;;;;;;;;;;;;;;;-144.99;100.00;52338.03;5094530;27;20046;-71
2023/05/06 06:11:54;;;;;;;;;;;;;;;-144.99;100.00;52305.41;5089086;28;20011;-70
2023/05/06 06:14:22;;;;;;;;;;;;;;;-144.99;100.00;52338.03;5096747;28;19924;-70
2023/05/06 06:16:48;;;;;;;;;;;;;;;-144.99;100.00;52342.09;5092177;28;19963;-69
2023/05/06 06:19:15;;;;;;;;;;;;;;;-144.99;100.00;52362.50;5095816;28;20030;-77
2023/05/06 06:21:41;;;;;;;;;;;;;;;-144.99;100.00;52289.13;5093506;28;19928;-77
2023/05/06 06:24:08;;;;;;;;;;;;;;;-144.99;100.00;52285.03;5094926;28;20026;-77
2023/05/06 06:26:34;;;;;;;;;;;;;;;-144.99;100.00;52342.09;5095562;28;19977;-77
2023/05/06 06:29:01;;;;;;;;;;;;;;;-144.99;100.00;52321.72;5103225;27;20080;-77
2023/05/06 06:31:29;;;;;;;;;;;;;;;-144.99;100.00;52323.75;5097776;28;19936;-75
2023/05/06 06:33:55;;;;;;;;;;;;;;;-144.99;100.00;52325.81;5103009;28;19923;-75
2023/05/06 06:36:22;;;;;;;;;;;;;;;-144.99;100.00;52272.81;5099925;28;20383;-76
2023/05/06 06:38:48;;;;;;;;;;;;;;;-144.99;100.00;52280.97;5088456;28;19928;-73
2023/05/06 06:41:15;;;;;;;;;;;;;;;-144.99;100.00;52346.19;5088499;28;20064;-74
2023/05/06 06:43:41;;;;;;;;;;;;;;;-144.99;100.00;52329.88;5093017;28;19928;-75
2023/05/06 06:46:08;;;;;;;;;;;;;;;-144.99;100.00;52283.00;5087839;28;19968;-70
2023/05/06 06:48:36;;;;;;;;;;;;;;;-144.99;100.00;52317.66;5087560;28;20361;-70
2023/05/06 06:51:02;;;;;;;;;;;;;;;-144.99;100.00;52305.41;5096969;28;20009;-71
2023/05/06 06:53:29;;;;;;;;;;;;;;;-144.99;100.00;52325.81;5099373;28;19932;-70
2023/05/06 06:55:55;;;;;;;;;;;;;;;-144.99;100.00;52325.81;5106211;28;20012;-69
2023/05/06 06:58:22;;;;;;;;;;;;;;;-144.99;100.00;52321.72;5101272;28;20330;-69
2023/05/06 07:00:48;;;;;;;;;;;;;;;-144.99;100.00;52313.56;5091219;28;19936;-63
2023/05/06 07:03:18;;;;;;;;;;;;;;;-144.99;100.00;52325.81;5097431;28;19958;-72
2023/05/06 07:05:46;;;;;;;;;;;;;;;-144.99;100.00;52293.19;5094076;28;20030;-72
2023/05/06 07:08:12;;;;;;;;;;;;;;;-144.99;100.00;52305.41;5103434;28;19973;-72
2023/05/06 07:10:39;;;;;;;;;;;;;;;-144.99;100.00;52356.38;5095041;28;20031;-71
2023/05/06 07:13:05;;;;;;;;;;;;;;;-144.99;100.00;52338.03;5097748;28;19924;-70
2023/05/06 07:15:32;;;;;;;;;;;;;;;-144.99;100.00;52321.72;5101065;28;19924;-72
2023/05/06 07:17:58;;;;;;;;;;;;;;;-144.99;100.00;52333.94;5106728;28;19931;-72
2023/05/06 07:20:25;;;;;;;;;;;;;;;-144.99;100.00;52346.19;5102672;28;19924;-74
2023/05/06 07:22:53;;;;;;;;;;;;;;;-144.99;100.00;52297.25;5098620;28;19932;-73
2023/05/06 07:25:19;;;;;;;;;;;;;;;-144.99;100.00;52317.66;5104137;28;19993;-73
2023/05/06 07:27:46;;;;;;;;;;;;;;;-144.99;100.00;52305.41;5105968;28;19936;-73
2023/05/06 07:30:13;;;;;;;;;;;;;;;-144.99;100.00;52307.47;5100497;28;19924;-73
2023/05/06 07:32:40;;;;;;;;;;;;;;;-144.99;100.00;52309.50;5096480;28;19947;-74
2023/05/06 07:35:07;;;;;;;;;;;;;;;-144.99;100.00;52321.72;5093652;28;19934;-62
2023/05/06 07:37:33;;;;;;;;;;;;;;;-144.99;100.00;52311.53;5095625;28;19985;-75
2023/05/06 07:40:01;;;;;;;;;;;;;;;-144.99;100.00;52331.91;5096969;27;19928;-76
2023/05/06 07:42:28;;;;;;;;;;;;;;;-144.99;100.00;52356.38;5097472;28;19925;-74
2023/05/06 07:44:54;;;;;;;;;;;;;;;-144.99;100.00;52336.00;5095713;28;20373;-74
2023/05/06 07:47:26;;;;;;;;;;;;;;;-144.99;100.00;52325.81;5096061;28;19989;-70
2023/05/06 07:49:52;;;;;;;;;;;;;;;-144.99;100.00;52293.19;5092135;28;20018;-59
2023/05/06 07:52:19;;;;;;;;;;;;;;;-144.99;100.00;52303.38;5097487;28;20223;-55
2023/05/06 07:54:46;;;;;;;;;;;;;;;-144.99;100.00;52317.66;5102517;28;19961;-71
2023/05/06 07:57:14;;;;;;;;;;;;;;;-144.99;100.00;52285.03;5105791;28;19970;-71
2023/05/06 07:59:41;;;;;;;;;;;;;;;-144.99;100.00;52291.16;5105203;28;19932;-71
2023/05/06 08:02:07;;;;;;;;;;;;;;;-144.99;100.00;52272.81;5102635;28;19927;-71
2023/05/06 08:04:34;;;;;;;;;;;;;;;-144.99;100.00;52333.94;5092770;28;19971;-70
2023/05/06 08:07:00;;;;;;;;;;;;;;;-144.99;100.00;52317.66;5099811;28;19932;-70
2023/05/06 08:09:27;;;;;;;;;;;;;;;-144.99;100.00;52333.94;5105121;28;19935;-70
2023/05/06 08:11:53;;;;;;;;;;;;;;;-144.99;100.00;52325.81;5091043;28;19931;-70
2023/05/06 08:14:21;;;;;;;;;;;;;;;-144.99;100.00;52285.03;5101971;28;19981;-70
2023/05/06 08:16:49;;;;;;;;;;;;;;;-144.99;100.00;52256.50;5093990;28;20477;-70
2023/05/06 08:19:16;;;;;;;;;;;;;;;-144.99;100.00;52301.34;5102841;28;19976;-70
2023/05/06 08:21:42;;;;;;;;;;;;;;;-144.99;100.00;52301.34;5094745;28;19924;-70
2023/05/06 08:24:09;;;;;;;;;;;;;;;-144.99;99.70;52313.56;5098947;28;19924;-69
2023/05/06 08:26:36;;;;;;;;;;;;;;;-144.99;100.00;52260.56;5091353;28;19935;-69
2023/05/06 08:29:03;;;;;;;;;;;;;;;-144.99;99.87;52313.56;5096678;28;19964;-70
2023/05/06 08:31:30;;;;;;;;;;;;;;;-144.99;100.00;52309.50;5090138;28;19970;-69
2023/05/06 08:33:57;;;;;;;;;;;;;;;-144.99;100.00;52313.56;5092806;28;19932;-69
2023/05/06 08:36:26;;;;;;;;;;;;;;;-144.99;100.00;52293.19;5101030;28;19982;-69
2023/05/06 08:38:52;;;;;;;;;;;;;;;-144.99;100.00;52260.56;5099633;28;20300;-70
2023/05/06 08:41:20;;;;;;;;;;;;;;;-144.99;100.00;52309.50;5110219;27;19927;-70
2023/05/06 08:43:47;;;;;;;;;;;;;;;-144.99;100.00;52338.03;5099921;28;20638;-70
2023/05/06 08:46:14;;;;;;;;;;;;;;;-144.99;100.00;52299.31;5100312;28;19923;-69
2023/05/06 08:48:42;;;;;;;;;;;;;;;-144.99;98.47;52280.97;5095303;28;20188;-69
2023/05/06 08:51:09;;;;;;;;;;;;;;;-144.99;99.45;52317.66;5096200;28;20340;-70
2023/05/06 08:53:35;;;;;;;;;;;;;;;-144.99;99.67;52297.25;5094991;28;19989;-70
2023/05/06 08:56:03;;;;;;;;;;;;;;;-144.99;99.49;52333.94;5105983;27;19930;-70
2023/05/06 08:58:31;;;;;;;;;;;;;;;-144.99;99.35;52260.56;5091963;28;20372;-70
2023/05/06 09:00:58;;;;;;;;;;;;;;;-144.99;99.49;52289.13;5095326;28;20019;-70
2023/05/06 09:03:25;;;;;;;;;;;;;;;-144.99;99.48;52301.34;5099015;28;19931;-70
2023/05/06 09:05:53;;;;;;;;;;;;;;;-144.99;99.15;52327.84;5101811;27;19932;-72
2023/05/06 09:08:19;;;;;;;;;;;;;;;-144.99;99.13;52309.50;5103994;28;19924;-70
2023/05/06 09:10:46;;;;;;;;;;;;;;;-144.99;99.03;52329.88;5090878;28;20013;-70
2023/05/06 09:13:14;;;;;;;;;;;;;;;-144.99;98.72;52305.41;5090783;28;19935;-70
2023/05/06 09:15:41;;;;;;;;;;;;;;;-144.99;98.97;52313.56;5093631;28;19988;-70
2023/05/06 09:18:07;;;;;;;;;;;;;;;-144.99;99.12;52268.72;5094565;28;20325;-71
2023/05/06 09:20:34;;;;;;;;;;;;;;;-144.99;98.72;52321.72;5092525;28;20052;-71
2023/05/06 09:23:02;;;;;;;;;;;;;;;-144.99;97.31;52297.25;5103214;28;19928;-71
2023/05/06 09:25:29;;;;;;;;;;;;;;;-144.99;96.72;52264.66;5103099;28;19975;-72
2023/05/06 09:28:03;;;;;;;;;;;;;;;-144.99;97.17;52303.38;5109761;28;20030;-71
2023/05/06 09:30:30;;;;;;;;;;;;;;;-144.99;94.30;52258.53;5091161;28;19928;-73
2023/05/06 09:32:56;;;;;;;;;;;;;;;-144.99;95.72;52297.25;5101282;28;19928;-70
2023/05/06 09:35:26;;;;;;;;;;;;;;;-144.99;96.19;52297.25;5096840;28;19986;-71
2023/05/06 09:37:53;;;;;;;;;;;;;;;-144.99;93.93;52295.22;5093797;28;19985;-71
2023/05/06 09:40:23;;;;;;;;;;;;;;;-144.99;92.19;52283.00;5089141;28;19973;-71
2023/05/06 09:42:50;;;;;;;;;;;;;;;-144.99;91.70;52258.53;5093021;28;19948;-71
2023/05/06 09:45:17;;;;;;;;;;;;;;;-144.99;92.54;52276.88;5099161;28;19942;-70
2023/05/06 09:47:43;;;;;;;;;;;;;;;-144.99;91.20;52317.66;5090051;28;20211;-71
2023/05/06 09:50:10;;;;;;;;;;;;;;;-144.99;90.55;52256.50;5098259;27;19936;-71
2023/05/06 09:52:37;;;;;;;;;;;;;;;-144.99;90.46;52285.03;5090513;28;19970;-71
2023/05/06 09:55:03;;;;;;;;;;;;;;;-144.99;90.68;52260.56;5097318;28;20376;-70
2023/05/06 09:57:32;;;;;;;;;;;;;;;-144.99;90.46;52313.56;5096998;28;20399;-72
2023/05/06 10:00:00;;;;;;;;;;;;;;;-144.99;90.07;52309.50;5098916;28;20310;-70
2023/05/06 10:02:27;;;;;;;;;;;;;;;-144.99;91.11;52293.19;5091880;28;19924;-72
2023/05/06 10:04:54;;;;;;;;;;;;;;;-144.99;90.90;52289.13;5093423;28;19975;-70
2023/05/06 10:07:22;;;;;;;;;;;;;;;-144.99;89.95;52301.34;5095857;28;19924;-70
2023/05/06 10:09:49;;;;;;;;;;;;;;;-144.99;89.91;52272.81;5102257;28;20534;-72
2023/05/06 10:12:16;;;;;;;;;;;;;;;-144.99;89.08;52268.72;5098901;28;19924;-69
2023/05/06 10:14:44;;;;;;;;;;;;;;;-144.99;89.48;52270.78;5095610;28;19924;-72
2023/05/06 10:17:12;;;;;;;;;;;;;;;-144.99;89.20;52252.44;5097366;28;20021;-72
2023/05/06 10:19:39;;;;;;;;;;;;;;;-144.99;88.53;52291.16;5095962;28;19924;-70
2023/05/06 10:22:08;;;;;;;;;;;;;;;-144.99;88.68;52270.78;5089039;28;20002;-71
2023/05/06 10:24:41;;;;;;;;;;;;;;;-144.99;89.17;52276.88;5098800;28;20353;-70
2023/05/06 10:27:10;;;;;;;;;;;;;;;-144.99;89.20;52287.06;5090900;27;20139;-70
2023/05/06 10:29:37;;;;;;;;;;;;;;;-144.99;89.26;52309.50;5098162;28;19969;-70
2023/05/06 10:32:08;;;;;;;;;;;;;;;-144.99;89.23;52285.03;5093527;28;20200;-72
2023/05/06 10:34:37;;;;;;;;;;;;;;;-144.99;88.86;52272.81;5091772;28;19928;-72
2023/05/06 10:37:04;;;;;;;;;;;;;;;-144.99;88.74;52285.03;5091247;28;20342;-70
2023/05/06 10:39:31;;;;;;;;;;;;;;;-144.99;88.92;52289.13;5094858;28;19976;-70
2023/05/06 10:41:58;;;;;;;;;;;;;;;-144.99;88.97;52293.19;5099646;28;20060;-70
2023/05/06 10:44:45;;;;;;;;;;;;;;;-144.99;89.45;52285.03;5095884;28;19936;-71
2023/05/06 10:47:13;;;;;;;;;;;;;;;-144.99;88.92;52236.13;5090212;28;19928;-70
2023/05/06 10:49:40;;;;;;;;;;;;;;;-144.99;88.75;52264.66;5098517;28;19927;-70
2023/05/06 10:52:11;;;;;;;;;;;;;;;-144.99;88.56;52260.56;5104541;28;20249;-70
2023/05/06 10:54:47;;;;;;;;;;;;;;;-144.99;88.74;52264.66;5102962;27;19932;-70
2023/05/06 10:57:13;;;;;;;;;;;;;;;-144.99;89.04;52307.47;5093903;28;19977;-69
2023/05/06 10:59:44;;;;;;;;;;;;;;;-144.99;88.39;52266.69;5102017;28;20517;-71
2023/05/06 11:02:17;;;;;;;;;;;;;;;-144.99;88.97;52276.88;5094406;28;20469;-72
2023/05/06 11:04:49;;;;;;;;;;;;;;;-144.99;89.14;52276.88;5093606;28;19923;-71
2023/05/06 11:07:21;;;;;;;;;;;;;;;-144.99;88.53;52289.13;5095466;28;19924;-70
2023/05/06 11:09:54;;;;;;;;;;;;;;;-144.99;88.18;52276.88;5099741;28;20016;-71
2023/05/06 11:12:21;;;;;;;;;;;;;;;-144.99;88.53;52309.50;5102414;28;19928;-71
2023/05/06 11:14:48;;;;;;;;;;;;;;;-144.99;88.39;52268.72;5097659;28;19935;-71
2023/05/06 11:17:29;;;;;;;;;;;;;;;-144.99;88.75;52268.72;5099360;28;20013;-71
2023/05/06 11:20:10;;;;;;;;;;;;;;;-144.99;88.43;52289.13;5089029;28;20446;-71
2023/05/06 11:22:41;;;;;;;;;;;;;;;-144.99;88.30;52280.97;5099440;28;20441;-71
2023/05/06 11:25:08;;;;;;;;;;;;;;;-144.99;88.82;52305.41;5092650;28;20356;-71
2023/05/06 11:27:35;;;;;;;;;;;;;;;-144.99;88.81;52293.19;5095377;28;19955;-71
2023/05/06 11:30:01;;;;;;;;;;;;;;;-144.99;88.84;52311.53;5087014;28;19953;-72
2023/05/06 11:32:29;;;;;;;;;;;;;;;-144.99;88.85;52293.19;5096245;28;19925;-70
2023/05/06 11:34:56;;;;;;;;;;;;;;;-144.99;88.90;52289.13;5100201;28;20329;-72
2023/05/06 11:37:26;;;;;;;;;;;;;;;-144.99;89.71;52317.66;5090971;28;20341;-71
2023/05/06 11:39:54;;;;;;;;;;;;;;;-144.99;91.95;52305.41;5091441;28;20004;-73
2023/05/06 11:42:24;;;;;;;;;;;;;;;-144.99;92.12;52285.03;5091013;28;20002;-71
2023/05/06 11:44:56;;;;;;;;;;;;;;;-144.99;92.37;52311.53;5095706;27;19924;-69
2023/05/06 11:47:23;;;;;;;;;;;;;;;-144.99;92.24;52321.72;5087163;28;19928;-70
2023/05/06 11:49:51;;;;;;;;;;;;;;;-144.99;92.19;52309.50;5095577;28;19996;-70
2023/05/06 11:52:19;;;;;;;;;;;;;;;-144.99;91.29;52285.03;5093872;28;19979;-72
2023/05/06 11:54:45;;;;;;;;;;;;;;;-144.99;90.95;52295.22;5094406;28;20438;-72
2023/05/06 11:57:13;;;;;;;;;;;;;;;-144.99;91.14;52301.34;5092729;28;19924;-68
2023/05/06 11:59:40;;;;;;;;;;;;;;;-144.99;90.79;52317.66;5093824;28;19928;-69
2023/05/06 12:02:08;;;;;;;;;;;;;;;-144.99;90.86;52317.66;5091991;28;19925;-68
2023/05/06 12:04:38;;;;;;;;;;;;;;;-144.99;91.21;52280.97;5089277;28;20395;-69
2023/05/06 12:07:05;;;;;;;;;;;;;;;-144.99;91.70;52301.34;5091809;28;19928;-69
2023/05/06 12:09:33;;;;;;;;;;;;;;;-144.99;91.58;52289.13;5094471;28;19931;-68
2023/05/06 12:11:59;;;;;;;;;;;;;;;-144.99;91.35;52299.31;5100374;28;19924;-69
2023/05/06 12:14:27;;;;;;;;;;;;;;;-144.99;91.21;52291.16;5094885;28;19935;-68
2023/05/06 12:16:54;;;;;;;;;;;;;;;-144.99;91.53;52297.25;5096275;28;20400;-68
2023/05/06 12:19:21;;;;;;;;;;;;;;;-144.99;91.39;52276.88;5096116;28;19986;-68
2023/05/06 12:21:47;;;;;;;;;;;;;;;-144.99;91.84;52307.47;5096114;28;19928;-68